sensor_id;sensor_type;location;lat;lon;timestamp;temperature;humidity
27314;DHT22;14800;48.174;9.798;2023-06-14T00:00:17;14.90;51.70
27314;DHT22;14800;48.174;9.798;2023-06-14T00:02:43;14.90;51.60
27314;DHT22;14800;48.174;9.798;2023-06-14T00:05:09;14.90;51.60
27314;DHT22;14800;48.174;9.798;2023-06-14T00:07:36;15.00;51.60
27314;DHT22;14800;48.174;9.798;2023-06-14T00:10:03;15.00;51.60
27314;DHT22;14800;48.174;9.798;2023-06-14T00:12:30;15.00;51.80
27314;DHT22;14800;48.174;9.798;2023-06-14T00:14:56;15.00;52.20
27314;DHT22;14800;48.174;9.798;2023-06-14T00:17:21;15.00;51.70
27314;DHT22;14800;48.174;9.798;2023-06-14T00:19:48;15.00;51.80
27314;DHT22;14800;48.174;9.798;2023-06-14T00:22:13;14.90;51.80
27314;DHT22;14800;48.174;9.798;2023-06-14T00:24:39;14.90;51.70
27314;DHT22;14800;48.174;9.798;2023-06-14T00:27:05;14.90;51.80
27314;DHT22;14800;48.174;9.798;2023-06-14T00:29:31;14.90;52.00
27314;DHT22;14800;48.174;9.798;2023-06-14T00:31:56;14.80;52.10
27314;DHT22;14800;48.174;9.798;2023-06-14T00:34:22;14.70;52.10
27314;DHT22;14800;48.174;9.798;2023-06-14T00:36:47;14.70;52.20
27314;DHT22;14800;48.174;9.798;2023-06-14T00:39:13;14.50;52.40
27314;DHT22;14800;48.174;9.798;2023-06-14T00:41:39;14.40;52.30
27314;DHT22;14800;48.174;9.798;2023-06-14T00:44:05;14.40;52.50
27314;DHT22;14800;48.174;9.798;2023-06-14T00:46:30;14.30;52.70
27314;DHT22;14800;48.174;9.798;2023-06-14T00:48:56;14.30;52.90
27314;DHT22;14800;48.174;9.798;2023-06-14T00:51:24;14.20;53.00
27314;DHT22;14800;48.174;9.798;2023-06-14T00:53:51;14.20;53.10
27314;DHT22;14800;48.174;9.798;2023-06-14T00:56:16;14.10;53.30
27314;DHT22;14800;48.174;9.798;2023-06-14T00:58:46;14.10;54.10
27314;DHT22;14800;48.174;9.798;2023-06-14T01:01:12;14.00;53.60
27314;DHT22;14800;48.174;9.798;2023-06-14T01:03:37;13.90;53.70
27314;DHT22;14800;48.174;9.798;2023-06-14T01:06:23;13.90;53.90
27314;DHT22;14800;48.174;9.798;2023-06-14T01:11:41;13.90;54.40
27314;DHT22;14800;48.174;9.798;2023-06-14T01:14:11;13.80;54.20
27314;DHT22;14800;48.174;9.798;2023-06-14T01:16:38;13.80;54.10
27314;DHT22;14800;48.174;9.798;2023-06-14T01:19:05;13.80;54.20
27314;DHT22;14800;48.174;9.798;2023-06-14T01:21:31;13.70;54.40
27314;DHT22;14800;48.174;9.798;2023-06-14T01:24:08;13.70;54.60
27314;DHT22;14800;48.174;9.798;2023-06-14T01:26:35;13.70;54.50
27314;DHT22;14800;48.174;9.798;2023-06-14T01:29:03;13.60;54.60
27314;DHT22;14800;48.174;9.798;2023-06-14T01:31:29;13.60;54.60
27314;DHT22;14800;48.174;9.798;2023-06-14T01:34:05;13.50;54.80
27314;DHT22;14800;48.174;9.798;2023-06-14T01:36:31;13.50;54.80
27314;DHT22;14800;48.174;9.798;2023-06-14T01:38:58;13.40;55.00
27314;DHT22;14800;48.174;9.798;2023-06-14T01:41:24;13.40;55.10
27314;DHT22;14800;48.174;9.798;2023-06-14T01:43:51;13.40;55.20
27314;DHT22;14800;48.174;9.798;2023-06-14T01:46:17;13.20;55.30
27314;DHT22;14800;48.174;9.798;2023-06-14T01:48:44;13.20;55.50
27314;DHT22;14800;48.174;9.798;2023-06-14T01:51:09;13.10;55.60
27314;DHT22;14800;48.174;9.798;2023-06-14T01:53:35;13.10;55.80
27314;DHT22;14800;48.174;9.798;2023-06-14T01:56:01;13.00;55.90
27314;DHT22;14800;48.174;9.798;2023-06-14T01:58:27;13.00;56.00
27314;DHT22;14800;48.174;9.798;2023-06-14T02:00:52;12.90;56.00
27314;DHT22;14800;48.174;9.798;2023-06-14T02:03:21;12.90;56.10
27314;DHT22;14800;48.174;9.798;2023-06-14T02:05:46;12.90;56.10
27314;DHT22;14800;48.174;9.798;2023-06-14T02:08:12;12.80;56.20
27314;DHT22;14800;48.174;9.798;2023-06-14T02:10:38;12.80;56.40
27314;DHT22;14800;48.174;9.798;2023-06-14T02:13:03;12.80;56.30
27314;DHT22;14800;48.174;9.798;2023-06-14T02:15:29;12.80;56.30
27314;DHT22;14800;48.174;9.798;2023-06-14T02:18:00;12.70;56.50
27314;DHT22;14800;48.174;9.798;2023-06-14T02:20:26;12.70;56.60
27314;DHT22;14800;48.174;9.798;2023-06-14T02:22:51;12.60;56.70
27314;DHT22;14800;48.174;9.798;2023-06-14T02:25:17;12.60;56.90
27314;DHT22;14800;48.174;9.798;2023-06-14T02:27:42;12.50;57.00
27314;DHT22;14800;48.174;9.798;2023-06-14T02:30:08;12.60;57.30
27314;DHT22;14800;48.174;9.798;2023-06-14T02:32:34;12.50;57.50
27314;DHT22;14800;48.174;9.798;2023-06-14T02:35:01;12.50;57.40
27314;DHT22;14800;48.174;9.798;2023-06-14T02:37:26;12.50;57.60
27314;DHT22;14800;48.174;9.798;2023-06-14T02:39:52;12.40;57.70
27314;DHT22;14800;48.174;9.798;2023-06-14T02:42:18;12.40;57.80
27314;DHT22;14800;48.174;9.798;2023-06-14T02:44:43;12.40;57.90
27314;DHT22;14800;48.174;9.798;2023-06-14T02:47:10;12.30;57.90
27314;DHT22;14800;48.174;9.798;2023-06-14T02:49:36;12.30;57.80
27314;DHT22;14800;48.174;9.798;2023-06-14T02:52:01;12.20;57.90
27314;DHT22;14800;48.174;9.798;2023-06-14T02:54:28;12.20;58.00
27314;DHT22;14800;48.174;9.798;2023-06-14T02:56:53;12.20;58.00
27314;DHT22;14800;48.174;9.798;2023-06-14T02:59:19;12.30;58.10
27314;DHT22;14800;48.174;9.798;2023-06-14T03:01:46;12.30;58.10
27314;DHT22;14800;48.174;9.798;2023-06-14T03:04:12;12.30;58.00
27314;DHT22;14800;48.174;9.798;2023-06-14T03:06:38;12.30;58.00
27314;DHT22;14800;48.174;9.798;2023-06-14T03:09:05;12.30;58.00
27314;DHT22;14800;48.174;9.798;2023-06-14T03:11:31;12.30;58.10
27314;DHT22;14800;48.174;9.798;2023-06-14T03:13:57;12.20;58.20
27314;DHT22;14800;48.174;9.798;2023-06-14T03:16:23;12.20;58.60
27314;DHT22;14800;48.174;9.798;2023-06-14T03:18:51;12.10;58.70
27314;DHT22;14800;48.174;9.798;2023-06-14T03:21:16;12.10;59.00
27314;DHT22;14800;48.174;9.798;2023-06-14T03:23:43;12.00;58.80
27314;DHT22;14800;48.174;9.798;2023-06-14T03:26:09;12.00;59.00
27314;DHT22;14800;48.174;9.798;2023-06-14T03:28:38;12.00;59.50
27314;DHT22;14800;48.174;9.798;2023-06-14T03:31:03;11.90;59.40
27314;DHT22;14800;48.174;9.798;2023-06-14T03:33:29;11.90;59.50
27314;DHT22;14800;48.174;9.798;2023-06-14T03:35:55;11.90;59.60
27314;DHT22;14800;48.174;9.798;2023-06-14T03:38:21;11.90;59.80
27314;DHT22;14800;48.174;9.798;2023-06-14T03:40:47;11.90;59.90
27314;DHT22;14800;48.174;9.798;2023-06-14T03:43:12;11.90;59.90
27314;DHT22;14800;48.174;9.798;2023-06-14T03:45:38;11.90;59.80
27314;DHT22;14800;48.174;9.798;2023-06-14T03:48:04;12.00;59.70
27314;DHT22;14800;48.174;9.798;2023-06-14T03:50:32;12.00;59.70
27314;DHT22;14800;48.174;9.798;2023-06-14T03:52:58;11.90;59.90
27314;DHT22;14800;48.174;9.798;2023-06-14T03:55:23;12.00;60.00
27314;DHT22;14800;48.174;9.798;2023-06-14T03:57:51;11.90;59.90
27314;DHT22;14800;48.174;9.798;2023-06-14T04:00:17;11.90;59.90
27314;DHT22;14800;48.174;9.798;2023-06-14T04:02:43;11.90;60.10
27314;DHT22;14800;48.174;9.798;2023-06-14T04:05:09;11.80;59.90
27314;DHT22;14800;48.174;9.798;2023-06-14T04:07:35;11.80;60.00
27314;DHT22;14800;48.174;9.798;2023-06-14T04:10:14;11.80;60.10
27314;DHT22;14800;48.174;9.798;2023-06-14T04:12:39;11.80;60.20
27314;DHT22;14800;48.174;9.798;2023-06-14T04:15:06;11.80;60.10
27314;DHT22;14800;48.174;9.798;2023-06-14T04:17:33;11.80;60.20
27314;DHT22;14800;48.174;9.798;2023-06-14T04:20:00;11.80;60.50
27314;DHT22;14800;48.174;9.798;2023-06-14T04:22:26;11.80;60.50
27314;DHT22;14800;48.174;9.798;2023-06-14T04:24:56;11.80;60.60
27314;DHT22;14800;48.174;9.798;2023-06-14T04:27:22;11.80;60.60
27314;DHT22;14800;48.174;9.798;2023-06-14T04:29:51;11.80;60.80
27314;DHT22;14800;48.174;9.798;2023-06-14T04:32:18;11.80;60.80
27314;DHT22;14800;48.174;9.798;2023-06-14T04:34:44;11.80;60.90
27314;DHT22;14800;48.174;9.798;2023-06-14T04:37:09;11.90;61.10
27314;DHT22;14800;48.174;9.798;2023-06-14T04:39:37;11.90;61.30
27314;DHT22;14800;48.174;9.798;2023-06-14T04:42:02;11.90;61.50
27314;DHT22;14800;48.174;9.798;2023-06-14T04:44:28;12.00;61.70
27314;DHT22;14800;48.174;9.798;2023-06-14T04:46:57;12.00;61.80
27314;DHT22;14800;48.174;9.798;2023-06-14T04:49:24;12.00;61.90
27314;DHT22;14800;48.174;9.798;2023-06-14T04:51:50;12.10;62.00
27314;DHT22;14800;48.174;9.798;2023-06-14T04:54:23;12.10;62.20
27314;DHT22;14800;48.174;9.798;2023-06-14T04:56:51;12.20;62.50
27314;DHT22;14800;48.174;9.798;2023-06-14T04:59:18;12.20;62.60
27314;DHT22;14800;48.174;9.798;2023-06-14T05:01:44;12.30;62.60
27314;DHT22;14800;48.174;9.798;2023-06-14T05:04:14;12.30;62.60
27314;DHT22;14800;48.174;9.798;2023-06-14T05:06:41;12.40;62.70
27314;DHT22;14800;48.174;9.798;2023-06-14T05:09:07;12.50;62.90
27314;DHT22;14800;48.174;9.798;2023-06-14T05:11:33;12.60;63.00
27314;DHT22;14800;48.174;9.798;2023-06-14T05:13:58;12.70;63.20
27314;DHT22;14800;48.174;9.798;2023-06-14T05:16:24;12.70;63.20
27314;DHT22;14800;48.174;9.798;2023-06-14T05:18:51;12.90;63.40
27314;DHT22;14800;48.174;9.798;2023-06-14T05:21:17;13.00;63.10
27314;DHT22;14800;48.174;9.798;2023-06-14T05:23:44;13.10;62.90
27314;DHT22;14800;48.174;9.798;2023-06-14T05:26:10;13.30;63.20
27314;DHT22;14800;48.174;9.798;2023-06-14T05:28:36;13.40;62.60
27314;DHT22;14800;48.174;9.798;2023-06-14T05:31:02;13.60;63.10
27314;DHT22;14800;48.174;9.798;2023-06-14T05:33:28;13.70;61.70
27314;DHT22;14800;48.174;9.798;2023-06-14T05:35:54;13.90;61.10
27314;DHT22;14800;48.174;9.798;2023-06-14T05:38:20;14.00;60.20
27314;DHT22;14800;48.174;9.798;2023-06-14T05:40:46;14.20;59.70
27314;DHT22;14800;48.174;9.798;2023-06-14T05:43:11;14.40;59.40
27314;DHT22;14800;48.174;9.798;2023-06-14T05:45:37;14.50;58.70
27314;DHT22;14800;48.174;9.798;2023-06-14T05:48:03;14.60;58.20
27314;DHT22;14800;48.174;9.798;2023-06-14T05:50:28;14.80;57.80
27314;DHT22;14800;48.174;9.798;2023-06-14T05:52:54;14.90;57.40
27314;DHT22;14800;48.174;9.798;2023-06-14T05:55:20;15.00;57.30
27314;DHT22;14800;48.174;9.798;2023-06-14T05:57:45;15.20;57.00
27314;DHT22;14800;48.174;9.798;2023-06-14T06:00:11;15.30;56.90
27314;DHT22;14800;48.174;9.798;2023-06-14T06:02:40;15.50;56.70
27314;DHT22;14800;48.174;9.798;2023-06-14T06:05:07;15.60;56.50
27314;DHT22;14800;48.174;9.798;2023-06-14T06:07:32;15.70;56.40
27314;DHT22;14800;48.174;9.798;2023-06-14T06:09:58;15.80;56.40
27314;DHT22;14800;48.174;9.798;2023-06-14T06:12:23;15.90;56.10
27314;DHT22;14800;48.174;9.798;2023-06-14T06:14:49;16.00;56.00
27314;DHT22;14800;48.174;9.798;2023-06-14T06:17:15;16.10;55.90
27314;DHT22;14800;48.174;9.798;2023-06-14T06:19:40;16.20;55.60
27314;DHT22;14800;48.174;9.798;2023-06-14T06:22:06;16.30;56.10
27314;DHT22;14800;48.174;9.798;2023-06-14T06:24:32;16.40;55.40
27314;DHT22;14800;48.174;9.798;2023-06-14T06:26:57;16.50;55.50
27314;DHT22;14800;48.174;9.798;2023-06-14T06:29:23;16.50;55.40
27314;DHT22;14800;48.174;9.798;2023-06-14T06:31:48;16.70;55.50
27314;DHT22;14800;48.174;9.798;2023-06-14T06:34:14;16.70;55.50
27314;DHT22;14800;48.174;9.798;2023-06-14T06:36:40;16.90;55.40
27314;DHT22;14800;48.174;9.798;2023-06-14T06:39:05;16.90;55.20
27314;DHT22;14800;48.174;9.798;2023-06-14T06:41:38;17.00;55.30
27314;DHT22;14800;48.174;9.798;2023-06-14T06:44:06;17.10;55.10
27314;DHT22;14800;48.174;9.798;2023-06-14T06:46:32;17.20;55.00
27314;DHT22;14800;48.174;9.798;2023-06-14T06:48:58;17.30;55.00
27314;DHT22;14800;48.174;9.798;2023-06-14T06:51:24;17.40;54.80
27314;DHT22;14800;48.174;9.798;2023-06-14T06:53:53;17.40;54.40
27314;DHT22;14800;48.174;9.798;2023-06-14T06:56:22;17.60;54.30
27314;DHT22;14800;48.174;9.798;2023-06-14T06:58:49;17.70;53.90
27314;DHT22;14800;48.174;9.798;2023-06-14T07:01:15;17.80;53.70
27314;DHT22;14800;48.174;9.798;2023-06-14T07:03:41;17.80;53.40
27314;DHT22;14800;48.174;9.798;2023-06-14T07:06:07;17.90;53.30
27314;DHT22;14800;48.174;9.798;2023-06-14T07:08:32;18.00;53.30
27314;DHT22;14800;48.174;9.798;2023-06-14T07:10:58;18.10;53.00
27314;DHT22;14800;48.174;9.798;2023-06-14T07:13:23;18.20;52.80
27314;DHT22;14800;48.174;9.798;2023-06-14T07:15:49;18.30;52.40
27314;DHT22;14800;48.174;9.798;2023-06-14T07:18:15;18.40;52.60
27314;DHT22;14800;48.174;9.798;2023-06-14T07:20:41;18.50;52.10
27314;DHT22;14800;48.174;9.798;2023-06-14T07:23:08;18.60;52.10
27314;DHT22;14800;48.174;9.798;2023-06-14T07:25:33;18.70;51.90
27314;DHT22;14800;48.174;9.798;2023-06-14T07:27:59;18.80;51.70
27314;DHT22;14800;48.174;9.798;2023-06-14T07:30:25;18.90;51.60
27314;DHT22;14800;48.174;9.798;2023-06-14T07:32:53;19.00;51.30
27314;DHT22;14800;48.174;9.798;2023-06-14T07:35:18;19.10;50.60
27314;DHT22;14800;48.174;9.798;2023-06-14T07:37:44;19.20;50.80
27314;DHT22;14800;48.174;9.798;2023-06-14T07:40:12;19.30;50.60
27314;DHT22;14800;48.174;9.798;2023-06-14T07:42:38;19.40;50.30
27314;DHT22;14800;48.174;9.798;2023-06-14T07:45:04;19.50;50.50
27314;DHT22;14800;48.174;9.798;2023-06-14T07:47:30;19.60;50.20
27314;DHT22;14800;48.174;9.798;2023-06-14T07:49:56;19.70;49.50
27314;DHT22;14800;48.174;9.798;2023-06-14T07:52:21;19.80;49.90
27314;DHT22;14800;48.174;9.798;2023-06-14T07:54:47;20.00;49.80
27314;DHT22;14800;48.174;9.798;2023-06-14T07:57:13;20.10;49.00
27314;DHT22;14800;48.174;9.798;2023-06-14T07:59:38;20.20;48.80
27314;DHT22;14800;48.174;9.798;2023-06-14T08:02:04;20.30;48.10
27314;DHT22;14800;48.174;9.798;2023-06-14T08:04:31;20.40;48.50
27314;DHT22;14800;48.174;9.798;2023-06-14T08:06:56;20.50;48.50
27314;DHT22;14800;48.174;9.798;2023-06-14T08:09:22;20.60;48.70
27314;DHT22;14800;48.174;9.798;2023-06-14T08:11:48;20.80;48.20
27314;DHT22;14800;48.174;9.798;2023-06-14T08:14:13;20.90;47.80
27314;DHT22;14800;48.174;9.798;2023-06-14T08:16:39;21.00;47.70
27314;DHT22;14800;48.174;9.798;2023-06-14T08:19:05;21.20;47.60
27314;DHT22;14800;48.174;9.798;2023-06-14T08:21:30;21.30;47.40
27314;DHT22;14800;48.174;9.798;2023-06-14T08:23:59;21.40;47.20
27314;DHT22;14800;48.174;9.798;2023-06-14T08:26:25;21.50;46.60
27314;DHT22;14800;48.174;9.798;2023-06-14T08:28:54;21.60;47.50
27314;DHT22;14800;48.174;9.798;2023-06-14T08:31:20;21.70;46.50
27314;DHT22;14800;48.174;9.798;2023-06-14T08:33:46;21.90;46.50
27314;DHT22;14800;48.174;9.798;2023-06-14T08:36:12;22.00;46.00
27314;DHT22;14800;48.174;9.798;2023-06-14T08:38:38;22.10;45.00
27314;DHT22;14800;48.174;9.798;2023-06-14T08:41:05;22.20;44.80
27314;DHT22;14800;48.174;9.798;2023-06-14T08:43:34;22.30;44.80
27314;DHT22;14800;48.174;9.798;2023-06-14T08:46:03;22.40;44.80
27314;DHT22;14800;48.174;9.798;2023-06-14T08:48:30;22.50;44.20
27314;DHT22;14800;48.174;9.798;2023-06-14T08:51:02;22.70;44.40
27314;DHT22;14800;48.174;9.798;2023-06-14T08:53:33;22.80;43.50
27314;DHT22;14800;48.174;9.798;2023-06-14T08:56:02;22.90;43.00
27314;DHT22;14800;48.174;9.798;2023-06-14T08:58:30;23.00;43.10
27314;DHT22;14800;48.174;9.798;2023-06-14T09:00:57;23.10;43.10
27314;DHT22;14800;48.174;9.798;2023-06-14T09:03:24;23.10;43.10
27314;DHT22;14800;48.174;9.798;2023-06-14T09:05:57;23.20;42.50
27314;DHT22;14800;48.174;9.798;2023-06-14T09:08:27;23.20;42.30
27314;DHT22;14800;48.174;9.798;2023-06-14T09:10:57;23.30;42.40
27314;DHT22;14800;48.174;9.798;2023-06-14T09:13:22;23.30;41.90
27314;DHT22;14800;48.174;9.798;2023-06-14T09:15:48;23.40;41.80
27314;DHT22;14800;48.174;9.798;2023-06-14T09:18:13;23.40;41.40
27314;DHT22;14800;48.174;9.798;2023-06-14T09:20:40;23.40;42.00
27314;DHT22;14800;48.174;9.798;2023-06-14T09:23:06;23.40;41.70
27314;DHT22;14800;48.174;9.798;2023-06-14T09:25:41;23.60;42.00
27314;DHT22;14800;48.174;9.798;2023-06-14T09:28:07;23.60;41.10
27314;DHT22;14800;48.174;9.798;2023-06-14T09:30:33;23.70;41.60
27314;DHT22;14800;48.174;9.798;2023-06-14T09:32:59;23.80;41.00
27314;DHT22;14800;48.174;9.798;2023-06-14T09:35:25;23.80;41.70
27314;DHT22;14800;48.174;9.798;2023-06-14T09:37:50;24.00;41.80
27314;DHT22;14800;48.174;9.798;2023-06-14T09:40:20;24.10;41.40
27314;DHT22;14800;48.174;9.798;2023-06-14T09:42:46;24.10;41.10
27314;DHT22;14800;48.174;9.798;2023-06-14T09:45:12;24.30;40.40
27314;DHT22;14800;48.174;9.798;2023-06-14T09:47:39;24.40;40.40
27314;DHT22;14800;48.174;9.798;2023-06-14T09:50:06;24.50;40.00
27314;DHT22;14800;48.174;9.798;2023-06-14T09:52:32;24.60;39.10
27314;DHT22;14800;48.174;9.798;2023-06-14T09:54:59;24.70;38.70
27314;DHT22;14800;48.174;9.798;2023-06-14T09:57:25;24.70;39.00
27314;DHT22;14800;48.174;9.798;2023-06-14T09:59:57;24.70;38.70
27314;DHT22;14800;48.174;9.798;2023-06-14T10:02:28;24.80;38.30
27314;DHT22;14800;48.174;9.798;2023-06-14T10:05:08;24.80;39.00
27314;DHT22;14800;48.174;9.798;2023-06-14T10:10:07;25.00;38.50
27314;DHT22;14800;48.174;9.798;2023-06-14T10:12:33;25.10;38.60
27314;DHT22;14800;48.174;9.798;2023-06-14T10:14:59;25.20;38.50
27314;DHT22;14800;48.174;9.798;2023-06-14T10:20:23;25.50;36.90
27314;DHT22;14800;48.174;9.798;2023-06-14T10:22:55;25.50;37.50
27314;DHT22;14800;48.174;9.798;2023-06-14T10:25:28;25.60;36.80
27314;DHT22;14800;48.174;9.798;2023-06-14T10:28:23;25.70;36.50
27314;DHT22;14800;48.174;9.798;2023-06-14T10:33:56;25.70;35.90
27314;DHT22;14800;48.174;9.798;2023-06-14T10:41:35;25.70;36.40
27314;DHT22;14800;48.174;9.798;2023-06-14T10:46:49;25.90;35.50
27314;DHT22;14800;48.174;9.798;2023-06-14T10:52:12;26.00;34.80
27314;DHT22;14800;48.174;9.798;2023-06-14T10:55:08;26.00;34.90
27314;DHT22;14800;48.174;9.798;2023-06-14T10:57:43;26.00;33.80
27314;DHT22;14800;48.174;9.798;2023-06-14T11:00:09;25.90;35.00
27314;DHT22;14800;48.174;9.798;2023-06-14T11:05:30;25.80;34.70
27314;DHT22;14800;48.174;9.798;2023-06-14T11:08:37;26.00;35.60
27314;DHT22;14800;48.174;9.798;2023-06-14T11:11:07;26.10;34.90
27314;DHT22;14800;48.174;9.798;2023-06-14T11:13:33;26.10;35.00
27314;DHT22;14800;48.174;9.798;2023-06-14T11:15:59;26.20;35.10
27314;DHT22;14800;48.174;9.798;2023-06-14T11:18:25;26.10;34.40
27314;DHT22;14800;48.174;9.798;2023-06-14T11:20:52;26.10;34.30
27314;DHT22;14800;48.174;9.798;2023-06-14T11:23:18;26.10;34.50
27314;DHT22;14800;48.174;9.798;2023-06-14T11:25:50;26.10;34.60
27314;DHT22;14800;48.174;9.798;2023-06-14T11:28:15;26.10;33.40
27314;DHT22;14800;48.174;9.798;2023-06-14T11:30:41;26.10;34.10
27314;DHT22;14800;48.174;9.798;2023-06-14T11:33:10;26.10;33.90
27314;DHT22;14800;48.174;9.798;2023-06-14T11:35:36;26.00;34.40
27314;DHT22;14800;48.174;9.798;2023-06-14T11:38:02;26.00;34.50
27314;DHT22;14800;48.174;9.798;2023-06-14T11:40:28;26.10;34.90
27314;DHT22;14800;48.174;9.798;2023-06-14T11:43:01;26.10;34.00
27314;DHT22;14800;48.174;9.798;2023-06-14T11:45:28;26.20;33.70
27314;DHT22;14800;48.174;9.798;2023-06-14T11:47:55;26.20;33.80
27314;DHT22;14800;48.174;9.798;2023-06-14T11:50:24;26.20;33.60
27314;DHT22;14800;48.174;9.798;2023-06-14T11:52:57;26.20;33.70
27314;DHT22;14800;48.174;9.798;2023-06-14T11:55:25;26.20;33.40
27314;DHT22;14800;48.174;9.798;2023-06-14T11:57:55;26.30;33.60
27314;DHT22;14800;48.174;9.798;2023-06-14T12:00:25;26.30;34.00
27314;DHT22;14800;48.174;9.798;2023-06-14T12:02:54;26.40;33.30
27314;DHT22;14800;48.174;9.798;2023-06-14T12:05:21;26.50;33.00
27314;DHT22;14800;48.174;9.798;2023-06-14T12:07:47;26.60;32.90
27314;DHT22;14800;48.174;9.798;2023-06-14T12:10:14;26.60;32.00
27314;DHT22;14800;48.174;9.798;2023-06-14T12:12:40;26.60;31.80
27314;DHT22;14800;48.174;9.798;2023-06-14T12:15:08;26.50;32.80
27314;DHT22;14800;48.174;9.798;2023-06-14T12:17:35;26.50;32.90
27314;DHT22;14800;48.174;9.798;2023-06-14T12:20:19;26.50;31.40
27314;DHT22;14800;48.174;9.798;2023-06-14T12:22:58;26.50;31.10
27314;DHT22;14800;48.174;9.798;2023-06-14T12:25:35;26.40;31.90
27314;DHT22;14800;48.174;9.798;2023-06-14T12:28:06;26.30;31.50
27314;DHT22;14800;48.174;9.798;2023-06-14T12:30:32;26.20;32.30
27314;DHT22;14800;48.174;9.798;2023-06-14T12:32:58;26.20;32.80
27314;DHT22;14800;48.174;9.798;2023-06-14T12:35:23;26.20;33.10
27314;DHT22;14800;48.174;9.798;2023-06-14T12:37:49;26.20;32.30
27314;DHT22;14800;48.174;9.798;2023-06-14T12:40:15;26.30;32.60
27314;DHT22;14800;48.174;9.798;2023-06-14T12:42:41;26.30;32.10
27314;DHT22;14800;48.174;9.798;2023-06-14T12:45:07;26.30;32.90
27314;DHT22;14800;48.174;9.798;2023-06-14T12:47:33;26.20;33.00
27314;DHT22;14800;48.174;9.798;2023-06-14T12:49:58;26.30;32.50
27314;DHT22;14800;48.174;9.798;2023-06-14T12:52:24;26.30;32.50
27314;DHT22;14800;48.174;9.798;2023-06-14T12:54:50;26.40;32.50
27314;DHT22;14800;48.174;9.798;2023-06-14T12:57:15;26.50;32.30
27314;DHT22;14800;48.174;9.798;2023-06-14T12:59:41;26.60;32.40
27314;DHT22;14800;48.174;9.798;2023-06-14T13:02:19;26.50;32.50
27314;DHT22;14800;48.174;9.798;2023-06-14T13:04:47;26.60;32.50
27314;DHT22;14800;48.174;9.798;2023-06-14T13:07:13;26.60;32.70
27314;DHT22;14800;48.174;9.798;2023-06-14T13:09:40;26.70;32.70
27314;DHT22;14800;48.174;9.798;2023-06-14T13:12:07;26.70;32.50
27314;DHT22;14800;48.174;9.798;2023-06-14T13:14:32;26.80;32.30
27314;DHT22;14800;48.174;9.798;2023-06-14T13:16:58;26.90;32.40
27314;DHT22;14800;48.174;9.798;2023-06-14T13:19:24;27.00;32.30
27314;DHT22;14800;48.174;9.798;2023-06-14T13:21:49;27.00;32.20
27314;DHT22;14800;48.174;9.798;2023-06-14T13:24:15;27.10;32.20
27314;DHT22;14800;48.174;9.798;2023-06-14T13:26:40;27.20;32.10
27314;DHT22;14800;48.174;9.798;2023-06-14T13:29:06;27.20;31.60
27314;DHT22;14800;48.174;9.798;2023-06-14T13:31:32;27.20;31.40
27314;DHT22;14800;48.174;9.798;2023-06-14T13:33:58;27.30;31.80
27314;DHT22;14800;48.174;9.798;2023-06-14T13:36:23;27.30;31.30
27314;DHT22;14800;48.174;9.798;2023-06-14T13:38:49;27.30;30.80
27314;DHT22;14800;48.174;9.798;2023-06-14T13:41:16;27.30;31.10
27314;DHT22;14800;48.174;9.798;2023-06-14T13:43:42;27.30;30.80
27314;DHT22;14800;48.174;9.798;2023-06-14T13:46:08;27.30;30.60
27314;DHT22;14800;48.174;9.798;2023-06-14T13:48:33;27.30;31.00
27314;DHT22;14800;48.174;9.798;2023-06-14T13:51:00;27.20;30.20
27314;DHT22;14800;48.174;9.798;2023-06-14T13:53:26;27.20;30.10
27314;DHT22;14800;48.174;9.798;2023-06-14T13:55:52;27.20;30.60
27314;DHT22;14800;48.174;9.798;2023-06-14T13:58:18;27.30;30.40
27314;DHT22;14800;48.174;9.798;2023-06-14T14:00:44;27.40;30.70
27314;DHT22;14800;48.174;9.798;2023-06-14T14:03:10;27.40;30.80
27314;DHT22;14800;48.174;9.798;2023-06-14T14:05:36;27.50;31.00
27314;DHT22;14800;48.174;9.798;2023-06-14T14:08:02;27.50;30.80
27314;DHT22;14800;48.174;9.798;2023-06-14T14:10:27;27.60;30.90
27314;DHT22;14800;48.174;9.798;2023-06-14T14:12:53;27.60;30.70
27314;DHT22;14800;48.174;9.798;2023-06-14T14:15:20;27.70;30.70
27314;DHT22;14800;48.174;9.798;2023-06-14T14:17:45;27.80;30.60
27314;DHT22;14800;48.174;9.798;2023-06-14T14:20:12;27.80;30.60
27314;DHT22;14800;48.174;9.798;2023-06-14T14:22:43;27.90;30.40
27314;DHT22;14800;48.174;9.798;2023-06-14T14:25:09;27.90;30.40
27314;DHT22;14800;48.174;9.798;2023-06-14T14:27:36;28.00;30.00
27314;DHT22;14800;48.174;9.798;2023-06-14T14:30:03;28.00;29.80
27314;DHT22;14800;48.174;9.798;2023-06-14T14:32:28;28.10;29.90
27314;DHT22;14800;48.174;9.798;2023-06-14T14:34:54;28.00;29.90
27314;DHT22;14800;48.174;9.798;2023-06-14T14:37:20;28.10;30.10
27314;DHT22;14800;48.174;9.798;2023-06-14T14:39:46;28.20;30.00
27314;DHT22;14800;48.174;9.798;2023-06-14T14:42:11;28.30;30.00
27314;DHT22;14800;48.174;9.798;2023-06-14T14:44:38;28.30;29.90
27314;DHT22;14800;48.174;9.798;2023-06-14T14:47:04;28.30;29.30
27314;DHT22;14800;48.174;9.798;2023-06-14T14:49:31;28.30;29.00
27314;DHT22;14800;48.174;9.798;2023-06-14T14:51:57;28.30;29.40
27314;DHT22;14800;48.174;9.798;2023-06-14T14:54:22;28.40;29.50
27314;DHT22;14800;48.174;9.798;2023-06-14T14:56:49;28.40;29.20
27314;DHT22;14800;48.174;9.798;2023-06-14T14:59:14;28.30;29.20
27314;DHT22;14800;48.174;9.798;2023-06-14T15:01:40;28.30;29.50
27314;DHT22;14800;48.174;9.798;2023-06-14T15:04:05;28.30;29.60
27314;DHT22;14800;48.174;9.798;2023-06-14T15:06:31;28.40;29.60
27314;DHT22;14800;48.174;9.798;2023-06-14T15:08:57;28.40;29.90
27314;DHT22;14800;48.174;9.798;2023-06-14T15:11:22;28.50;28.90
27314;DHT22;14800;48.174;9.798;2023-06-14T15:13:48;28.60;29.30
27314;DHT22;14800;48.174;9.798;2023-06-14T15:16:14;28.60;29.40
27314;DHT22;14800;48.174;9.798;2023-06-14T15:18:40;28.70;29.40
27314;DHT22;14800;48.174;9.798;2023-06-14T15:21:05;28.70;29.40
27314;DHT22;14800;48.174;9.798;2023-06-14T15:23:31;28.60;28.90
27314;DHT22;14800;48.174;9.798;2023-06-14T15:25:57;28.60;29.10
27314;DHT22;14800;48.174;9.798;2023-06-14T15:28:24;28.50;29.10
27314;DHT22;14800;48.174;9.798;2023-06-14T15:30:53;28.50;28.90
27314;DHT22;14800;48.174;9.798;2023-06-14T15:33:19;28.50;28.80
27314;DHT22;14800;48.174;9.798;2023-06-14T15:35:46;28.60;29.20
27314;DHT22;14800;48.174;9.798;2023-06-14T15:38:12;28.60;29.20
27314;DHT22;14800;48.174;9.798;2023-06-14T15:40:37;28.60;29.10
27314;DHT22;14800;48.174;9.798;2023-06-14T15:43:03;28.70;29.10
27314;DHT22;14800;48.174;9.798;2023-06-14T15:45:29;28.70;29.00
27314;DHT22;14800;48.174;9.798;2023-06-14T15:47:54;28.70;29.00
27314;DHT22;14800;48.174;9.798;2023-06-14T15:50:20;28.70;29.30
27314;DHT22;14800;48.174;9.798;2023-06-14T15:52:46;28.60;29.20